createdAt,value
2022-09-23T00:01:15.801Z,100809.00
2022-09-23T00:03:47.267Z,100802.00
2022-09-23T00:06:17.896Z,100800.00
2022-09-23T00:08:46.752Z,100804.00
2022-09-23T00:11:17.603Z,100803.00
2022-09-23T00:13:48.895Z,100799.00
2022-09-23T00:16:19.616Z,100797.00
2022-09-23T00:18:50.639Z,100796.00
2022-09-23T00:21:20.893Z,100794.00
2022-09-23T00:23:50.010Z,100797.00
2022-09-23T00:26:20.467Z,100797.00
2022-09-23T00:28:49.529Z,100785.00
2022-09-23T00:31:23.619Z,100794.00
2022-09-23T00:33:56.991Z,100796.00
2022-09-23T00:36:27.228Z,100794.00
2022-09-23T00:38:56.283Z,100792.00
2022-09-23T00:41:25.367Z,100795.00
2022-09-23T00:43:55.614Z,100793.00
2022-09-23T00:46:29.221Z,100797.00
2022-09-23T00:49:02.913Z,100796.00
2022-09-23T00:51:35.764Z,100794.00
2022-09-23T00:54:05.484Z,100790.00
2022-09-23T00:56:34.703Z,100782.00
2022-09-23T00:59:03.604Z,100778.00
2022-09-23T01:01:32.355Z,100787.00
2022-09-23T01:04:02.386Z,100783.00
2022-09-23T01:06:30.978Z,100782.00
2022-09-23T01:08:59.739Z,100783.00
2022-09-23T01:11:41.243Z,100776.00
2022-09-23T01:14:28.474Z,100772.00
2022-09-23T01:17:04.674Z,100773.00
2022-09-23T01:20:24.425Z,100758.00
2022-09-23T01:23:05.512Z,100766.00
2022-09-23T01:25:52.078Z,100763.00
2022-09-23T01:28:37.683Z,100754.00
2022-09-23T01:31:14.818Z,100760.00
2022-09-23T01:33:54.339Z,100760.00
2022-09-23T01:36:28.035Z,100746.00
2022-09-23T01:39:02.282Z,100753.00
2022-09-23T01:41:48.173Z,100749.00
2022-09-23T01:44:22.910Z,100746.00
2022-09-23T01:46:56.049Z,100741.00
2022-09-23T01:49:29.402Z,100742.00
2022-09-23T01:52:02.027Z,100746.00
2022-09-23T01:54:35.784Z,100747.00
2022-09-23T01:57:10.793Z,100738.00
2022-09-23T01:59:42.046Z,100733.00
2022-09-23T02:02:17.109Z,100730.00
2022-09-23T02:04:51.541Z,100725.00
2022-09-23T02:07:25.785Z,100730.00
2022-09-23T02:09:58.713Z,100719.00
2022-09-23T02:12:31.038Z,100727.00
2022-09-23T02:15:04.097Z,100722.00
2022-09-23T02:17:39.633Z,100712.00
2022-09-23T02:20:10.569Z,100712.00
2022-09-23T02:22:42.414Z,100713.00
2022-09-23T02:25:13.085Z,100708.00
2022-09-23T02:27:47.388Z,100709.00
2022-09-23T02:30:19.304Z,100708.00
2022-09-23T02:32:55.976Z,100706.00
2022-09-23T02:35:33.199Z,100711.00
2022-09-23T02:38:12.045Z,100704.00
2022-09-23T02:40:47.948Z,100697.00
2022-09-23T02:43:25.532Z,100702.00
2022-09-23T02:45:54.077Z,100698.00
2022-09-23T02:48:28.426Z,100691.00
2022-09-23T02:51:00.775Z,100697.00
2022-09-23T02:53:29.714Z,100695.00
2022-09-23T02:55:58.128Z,100694.00
2022-09-23T02:58:26.873Z,100688.00
2022-09-23T03:01:06.690Z,100689.00
2022-09-23T03:03:44.803Z,100683.00
2022-09-23T03:06:23.983Z,100684.00
2022-09-23T03:08:58.239Z,100683.00
2022-09-23T03:11:27.236Z,100676.00
2022-09-23T03:14:17.584Z,100690.00
2022-09-23T03:16:53.977Z,100673.00
2022-09-23T03:19:32.477Z,100669.00
2022-09-23T03:22:05.475Z,100673.00
2022-09-23T03:24:36.279Z,100669.00
2022-09-23T03:27:13.837Z,100665.00
2022-09-23T03:29:45.601Z,100661.00
2022-09-23T03:32:14.996Z,100661.00
2022-09-23T03:34:49.366Z,100658.00
2022-09-23T03:37:21.585Z,100660.00
2022-09-23T03:39:53.682Z,100656.00
2022-09-23T03:42:26.050Z,100658.00
2022-09-23T03:44:57.234Z,100649.00
2022-09-23T03:47:27.943Z,100656.00
2022-09-23T03:49:57.975Z,100659.00
2022-09-23T03:52:27.348Z,100659.00
2022-09-23T03:54:55.866Z,100653.00
2022-09-23T03:57:25.751Z,100654.00
2022-09-23T03:59:54.710Z,100655.00
2022-09-23T04:02:23.282Z,100662.00
2022-09-23T04:04:51.775Z,100650.00
2022-09-23T04:07:21.582Z,100649.00
2022-09-23T04:09:50.137Z,100647.00
2022-09-23T04:12:19.487Z,100651.00
2022-09-23T04:14:48.251Z,100655.00
2022-09-23T04:17:17.312Z,100644.00
2022-09-23T04:19:46.087Z,100648.00
2022-09-23T04:22:15.251Z,100650.00
2022-09-23T04:24:45.050Z,100648.00
2022-09-23T04:27:13.519Z,100636.00
2022-09-23T04:29:41.974Z,100644.00
2022-09-23T04:32:10.466Z,100637.00
2022-09-23T04:34:38.865Z,100629.00
2022-09-23T04:37:07.327Z,100642.00
2022-09-23T04:39:35.782Z,100640.00
2022-09-23T04:42:05.800Z,100625.00
2022-09-23T04:44:34.880Z,100626.00
2022-09-23T04:47:04.409Z,100633.00
2022-09-23T04:49:33.768Z,100634.00
2022-09-23T04:52:02.792Z,100631.00
2022-09-23T04:54:31.326Z,100628.00
2022-09-23T04:56:59.796Z,100628.00
2022-09-23T04:59:30.174Z,100626.00
2022-09-23T05:01:58.658Z,100624.00
2022-09-23T05:04:27.398Z,100626.00
2022-09-23T05:06:57.486Z,100620.00
2022-09-23T05:09:29.393Z,100629.00
2022-09-23T05:11:57.912Z,100624.00
2022-09-23T05:14:26.392Z,100619.00
2022-09-23T05:16:56.241Z,100619.00
2022-09-23T05:19:24.711Z,100622.00
2022-09-23T05:21:53.172Z,100631.00
2022-09-23T05:24:24.463Z,100635.00
2022-09-23T05:26:54.211Z,100632.00
2022-09-23T05:29:22.591Z,100639.00
2022-09-23T05:31:51.072Z,100636.00
2022-09-23T05:34:21.123Z,100627.00
2022-09-23T05:36:49.604Z,100629.00
2022-09-23T05:39:18.071Z,100627.00
2022-09-23T05:41:46.590Z,100636.00
2022-09-23T05:44:15.037Z,100638.00
2022-09-23T05:46:43.540Z,100635.00
2022-09-23T05:49:12.067Z,100635.00
2022-09-23T05:51:42.018Z,100632.00
2022-09-23T05:54:10.726Z,100635.00
2022-09-23T05:56:39.425Z,100631.00
2022-09-23T05:59:08.135Z,100636.00
2022-09-23T06:01:38.863Z,100639.00
2022-09-23T06:04:09.244Z,100640.00
2022-09-23T06:06:39.583Z,100631.00
2022-09-23T06:09:11.763Z,100636.00
2022-09-23T06:11:41.386Z,100633.00
2022-09-23T06:14:13.927Z,100642.00
2022-09-23T06:16:43.160Z,100631.00
2022-09-23T06:19:11.682Z,100632.00
2022-09-23T06:21:41.486Z,100637.00
2022-09-23T06:24:16.359Z,100628.00
2022-09-23T06:26:49.099Z,100629.00
2022-09-23T06:29:18.197Z,100623.00
2022-09-23T06:31:46.688Z,100626.00
2022-09-23T06:34:16.232Z,100632.00
2022-09-23T06:36:46.379Z,100630.00
2022-09-23T06:39:16.938Z,100628.00
2022-09-23T06:41:45.645Z,100635.00
2022-09-23T06:44:14.416Z,100631.00
2022-09-23T06:46:43.416Z,100626.00
2022-09-23T06:49:12.955Z,100635.00
2022-09-23T06:51:41.585Z,100623.00
2022-09-23T06:54:11.079Z,100625.00
2022-09-23T06:56:41.281Z,100633.00
2022-09-23T06:59:13.080Z,100627.00
2022-09-23T07:01:41.987Z,100629.00
2022-09-23T07:04:14.042Z,100628.00
2022-09-23T07:06:42.648Z,100631.00
2022-09-23T07:09:11.593Z,100634.00
2022-09-23T07:11:41.676Z,100631.00
2022-09-23T07:14:10.357Z,100635.00
2022-09-23T07:16:38.770Z,100626.00
2022-09-23T07:19:07.389Z,100628.00
2022-09-23T07:21:36.834Z,100634.00
2022-09-23T07:24:05.921Z,100642.00
2022-09-23T07:26:34.894Z,100632.00
2022-09-23T07:29:05.563Z,100640.00
2022-09-23T07:31:39.630Z,100641.00
2022-09-23T07:34:11.673Z,100637.00
2022-09-23T07:36:41.591Z,100630.00
2022-09-23T07:39:11.070Z,100635.00
2022-09-23T07:41:43.540Z,100639.00
2022-09-23T07:44:13.609Z,100636.00
2022-09-23T07:46:42.183Z,100632.00
2022-09-23T07:49:10.845Z,100634.00
2022-09-23T07:51:41.760Z,100641.00
2022-09-23T07:54:14.019Z,100637.00
2022-09-23T07:56:43.479Z,100633.00
2022-09-23T07:59:17.156Z,100638.00
2022-09-23T08:01:47.824Z,100645.00
2022-09-23T08:04:18.811Z,100643.00
2022-09-23T08:06:49.178Z,100652.00
2022-09-23T08:09:19.492Z,100643.00
2022-09-23T08:11:48.447Z,100652.00
2022-09-23T08:14:19.178Z,100649.00
2022-09-23T08:16:48.158Z,100645.00
2022-09-23T08:19:17.022Z,100645.00
2022-09-23T08:21:47.512Z,100643.00
2022-09-23T08:24:18.049Z,100652.00
2022-09-23T08:26:47.681Z,100643.00
2022-09-23T08:29:19.261Z,100635.00
2022-09-23T08:31:49.507Z,100634.00
2022-09-23T08:34:19.160Z,100647.00
2022-09-23T08:36:48.036Z,100636.00
2022-09-23T08:39:17.618Z,100636.00
2022-09-23T08:41:58.425Z,100637.00
2022-09-23T08:44:33.205Z,100627.00
2022-09-23T08:47:12.032Z,100630.00
2022-09-23T08:49:48.818Z,100622.00
2022-09-23T08:52:25.483Z,100622.00
2022-09-23T08:54:55.591Z,100617.00
2022-09-23T08:57:35.467Z,100616.00
2022-09-23T09:00:07.029Z,100617.00
2022-09-23T09:02:37.284Z,100620.00
2022-09-23T09:05:10.050Z,100615.00
2022-09-23T09:07:42.106Z,100609.00
2022-09-23T09:10:18.145Z,100610.00
2022-09-23T09:12:49.036Z,100607.00
2022-09-23T09:15:24.734Z,100614.00
2022-09-23T09:18:01.246Z,100615.00
2022-09-23T09:20:39.319Z,100612.00
2022-09-23T09:23:21.057Z,100615.00
2022-09-23T09:25:51.873Z,100609.00
2022-09-23T09:28:24.667Z,100617.00
2022-09-23T09:30:57.672Z,100609.00
2022-09-23T09:33:32.332Z,100610.00
2022-09-23T09:36:12.921Z,100607.00
2022-09-23T09:38:41.447Z,100608.00
2022-09-23T09:41:16.976Z,100602.00
2022-09-23T09:43:52.379Z,100600.00
2022-09-23T09:46:37.452Z,100605.00
2022-09-23T09:49:12.973Z,100604.00
2022-09-23T09:51:42.082Z,100596.00
2022-09-23T09:54:24.666Z,100583.00
2022-09-23T09:56:54.092Z,100589.00
2022-09-23T09:59:29.191Z,100595.00
2022-09-23T10:02:26.102Z,100577.00
2022-09-23T10:05:01.047Z,100575.00
2022-09-23T10:07:31.903Z,100570.00
2022-09-23T10:10:22.474Z,100562.00
2022-09-23T10:13:16.240Z,100564.00
2022-09-23T10:15:45.888Z,100557.00
2022-09-23T10:18:21.242Z,100563.00
2022-09-23T10:20:50.586Z,100565.00
2022-09-23T10:23:25.303Z,100552.00
2022-09-23T10:25:58.311Z,100559.00
2022-09-23T10:28:50.239Z,100554.00
2022-09-23T10:31:25.331Z,100556.00
2022-09-23T10:33:57.312Z,100544.00
2022-09-23T10:36:25.967Z,100549.00
2022-09-23T10:39:18.645Z,100549.00
2022-09-23T10:42:21.376Z,100540.00
2022-09-23T10:45:20.948Z,100540.00
2022-09-23T10:47:57.887Z,100540.00
2022-09-23T10:50:38.900Z,100539.00
2022-09-23T10:53:19.395Z,100534.00
2022-09-23T10:56:05.673Z,100532.00
2022-09-23T10:58:51.518Z,100533.00
2022-09-23T11:01:35.726Z,100525.00
2022-09-23T11:04:34.042Z,100524.00
2022-09-23T11:07:14.113Z,100533.00
2022-09-23T11:09:53.964Z,100532.00
2022-09-23T11:12:32.260Z,100529.00
2022-09-23T11:15:16.493Z,100517.00
2022-09-23T11:18:17.696Z,100512.00
2022-09-23T11:20:55.640Z,100506.00
2022-09-23T11:23:55.226Z,100511.00
2022-09-23T11:26:36.645Z,100512.00
2022-09-23T11:29:56.398Z,100501.00
2022-09-23T11:33:04.404Z,100502.00
2022-09-23T11:35:39.000Z,100497.00
2022-09-23T11:38:12.061Z,100497.00
2022-09-23T11:40:46.498Z,100495.00
2022-09-23T11:43:21.689Z,100489.00
2022-09-23T11:45:56.486Z,100486.00
2022-09-23T11:48:30.656Z,100484.00
2022-09-23T11:51:03.509Z,100492.00
2022-09-23T11:53:43.436Z,100481.00
2022-09-23T11:56:33.912Z,100487.00
2022-09-23T11:59:11.543Z,100478.00
2022-09-23T12:01:46.644Z,100478.00
2022-09-23T12:04:23.673Z,100470.00
2022-09-23T12:06:56.468Z,100466.00
2022-09-23T12:09:56.843Z,100464.00
2022-09-23T12:12:27.313Z,100467.00
2022-09-23T12:15:02.401Z,100465.00
2022-09-23T12:17:50.477Z,100466.00
2022-09-23T12:20:42.355Z,100458.00
2022-09-23T12:23:24.249Z,100462.00
2022-09-23T12:25:57.812Z,100458.00
2022-09-23T12:28:31.282Z,100460.00
2022-09-23T12:31:02.038Z,100461.00
2022-09-23T12:33:32.676Z,100461.00
2022-09-23T12:36:05.907Z,100459.00
2022-09-23T12:38:37.140Z,100451.00
2022-09-23T12:41:21.993Z,100450.00
2022-09-23T12:43:55.368Z,100442.00
2022-09-23T12:46:27.415Z,100440.00
2022-09-23T12:49:03.960Z,100440.00
2022-09-23T12:51:34.475Z,100434.00
2022-09-23T12:54:25.295Z,100441.00
2022-09-23T12:57:01.922Z,100436.00
2022-09-23T12:59:53.589Z,100439.00
2022-09-23T13:02:34.188Z,100441.00
2022-09-23T13:05:38.167Z,100434.00
2022-09-23T13:08:09.924Z,100425.00
2022-09-23T13:10:45.070Z,100420.00
2022-09-23T13:13:22.929Z,100417.00
2022-09-23T13:15:53.621Z,100415.00
2022-09-23T13:18:46.430Z,100411.00
2022-09-23T13:21:47.407Z,100419.00
2022-09-23T13:24:21.503Z,100408.00
2022-09-23T13:26:53.783Z,100398.00
2022-09-23T13:29:26.971Z,100392.00
2022-09-23T13:31:58.044Z,100395.00
2022-09-23T13:34:31.464Z,100392.00
2022-09-23T13:37:22.018Z,100386.00
2022-09-23T13:39:51.314Z,100384.00
2022-09-23T13:42:27.658Z,100384.00
2022-09-23T13:45:00.409Z,100379.00
2022-09-23T13:47:31.137Z,100377.00
2022-09-23T13:49:59.868Z,100373.00
2022-09-23T13:52:32.497Z,100373.00
2022-09-23T13:55:01.004Z,100372.00
2022-09-23T13:57:31.275Z,100371.00
2022-09-23T14:00:04.372Z,100364.00
2022-09-23T14:02:32.942Z,100364.00
2022-09-23T14:05:13.355Z,100365.00
2022-09-23T14:07:43.406Z,100357.00
2022-09-23T14:10:20.813Z,100363.00
2022-09-23T14:12:50.554Z,100349.00
2022-09-23T14:15:21.351Z,100351.00
2022-09-23T14:17:52.045Z,100347.00
2022-09-23T14:20:23.386Z,100346.00
2022-09-23T14:23:07.238Z,100346.00
2022-09-23T14:25:36.682Z,100330.00
2022-09-23T14:28:05.818Z,100335.00
2022-09-23T14:30:34.403Z,100338.00
2022-09-23T14:33:08.551Z,100332.00
2022-09-23T14:35:42.876Z,100323.00
2022-09-23T14:38:30.988Z,100323.00
2022-09-23T14:41:14.771Z,100333.00
2022-09-23T14:43:49.985Z,100318.00
2022-09-23T14:46:20.454Z,100320.00
2022-09-23T14:49:02.243Z,100313.00
2022-09-23T14:51:35.148Z,100313.00
2022-09-23T14:54:25.566Z,100311.00
2022-09-23T14:56:54.958Z,100313.00
2022-09-23T14:59:28.338Z,100302.00
2022-09-23T15:01:57.265Z,100315.00
2022-09-23T15:04:34.997Z,100303.00
2022-09-23T15:07:15.442Z,100309.00
2022-09-23T15:09:46.802Z,100314.00
2022-09-23T15:12:17.134Z,100311.00
2022-09-23T15:14:49.510Z,100314.00
2022-09-23T15:17:26.606Z,100314.00
2022-09-23T15:19:58.483Z,100305.00
2022-09-23T15:22:27.734Z,100305.00
2022-09-23T15:25:15.744Z,100312.00
2022-09-23T15:27:55.990Z,100298.00
2022-09-23T15:30:24.953Z,100304.00
2022-09-23T15:32:53.807Z,100304.00
2022-09-23T15:35:25.601Z,100296.00
2022-09-23T15:37:58.280Z,100294.00
2022-09-23T15:40:30.129Z,100295.00
2022-09-23T15:43:00.723Z,100295.00
2022-09-23T15:45:33.192Z,100288.00
2022-09-23T15:48:07.342Z,100289.00
2022-09-23T15:50:36.642Z,100293.00
2022-09-23T15:53:06.207Z,100284.00
2022-09-23T15:55:36.142Z,100286.00
2022-09-23T15:58:04.614Z,100286.00
2022-09-23T16:00:34.138Z,100278.00
2022-09-23T16:03:04.290Z,100280.00
2022-09-23T16:05:37.770Z,100281.00
2022-09-23T16:08:09.236Z,100276.00
2022-09-23T16:10:39.892Z,100281.00
2022-09-23T16:13:12.075Z,100281.00
2022-09-23T16:15:41.201Z,100270.00
2022-09-23T16:18:11.444Z,100273.00
2022-09-23T16:20:41.928Z,100265.00
2022-09-23T16:23:33.958Z,100261.00
2022-09-23T16:26:08.309Z,100261.00
2022-09-23T16:28:37.063Z,100259.00
2022-09-23T16:31:05.920Z,100263.00
2022-09-23T16:33:34.635Z,100262.00
2022-09-23T16:36:03.377Z,100261.00
2022-09-23T16:38:32.654Z,100257.00
2022-09-23T16:41:01.425Z,100261.00
2022-09-23T16:43:39.498Z,100255.00
2022-09-23T16:46:08.981Z,100257.00
2022-09-23T16:48:40.383Z,100263.00
2022-09-23T16:51:09.583Z,100256.00
2022-09-23T16:53:39.222Z,100258.00
2022-09-23T16:56:09.553Z,100257.00
2022-09-23T16:58:40.337Z,100249.00
2022-09-23T17:01:30.963Z,100256.00
2022-09-23T17:03:59.397Z,100247.00
2022-09-23T17:06:29.010Z,100248.00
2022-09-23T17:08:57.478Z,100246.00
2022-09-23T17:11:25.881Z,100248.00
2022-09-23T17:13:55.743Z,100251.00
2022-09-23T17:16:26.360Z,100249.00
2022-09-23T17:18:55.980Z,100243.00
2022-09-23T17:21:26.452Z,100242.00
2022-09-23T17:23:55.523Z,100234.00
2022-09-23T17:26:25.643Z,100241.00
2022-09-23T17:28:58.892Z,100240.00
2022-09-23T17:31:28.095Z,100234.00
2022-09-23T17:33:56.741Z,100236.00
2022-09-23T17:36:25.190Z,100244.00
2022-09-23T17:38:54.475Z,100244.00
2022-09-23T17:41:23.337Z,100245.00
2022-09-23T17:43:58.607Z,100242.00
2022-09-23T17:46:31.040Z,100235.00
2022-09-23T17:48:59.996Z,100242.00
2022-09-23T17:51:28.742Z,100240.00
2022-09-23T17:53:57.748Z,100242.00
2022-09-23T17:56:29.790Z,100243.00
2022-09-23T17:59:02.685Z,100247.00
2022-09-23T18:01:31.892Z,100240.00
2022-09-23T18:04:02.360Z,100245.00
2022-09-23T18:06:33.705Z,100247.00
2022-09-23T18:09:04.236Z,100242.00
2022-09-23T18:11:35.411Z,100245.00
2022-09-23T18:14:08.445Z,100253.00
2022-09-23T18:16:39.602Z,100242.00
2022-09-23T18:19:11.782Z,100250.00
2022-09-23T18:21:42.891Z,100247.00
2022-09-23T18:27:00.795Z,100247.00
2022-09-23T18:29:31.782Z,100247.00
2022-09-23T18:32:01.627Z,100248.00
2022-09-23T18:34:33.205Z,100241.00
2022-09-23T18:37:02.471Z,100247.00
2022-09-23T18:39:32.021Z,100239.00
2022-09-23T18:42:02.968Z,100247.00
2022-09-23T18:44:34.706Z,100244.00
2022-09-23T18:47:05.183Z,100249.00
2022-09-23T18:50:06.108Z,100243.00
2022-09-23T18:52:34.580Z,100240.00
2022-09-23T18:55:03.094Z,100245.00
2022-09-23T18:57:31.584Z,100244.00
2022-09-23T19:00:02.018Z,100242.00
2022-09-23T19:02:32.726Z,100245.00
2022-09-23T19:05:02.026Z,100237.00
2022-09-23T19:07:30.539Z,100245.00
2022-09-23T19:09:59.040Z,100238.00
2022-09-23T19:12:27.523Z,100240.00
2022-09-23T19:14:55.996Z,100240.00
2022-09-23T19:17:25.849Z,100237.00
2022-09-23T19:19:54.268Z,100233.00
2022-09-23T19:22:22.723Z,100238.00
2022-09-23T19:24:51.136Z,100233.00
2022-09-23T19:27:19.642Z,100237.00
2022-09-23T19:29:48.089Z,100243.00
2022-09-23T19:32:16.673Z,100230.00
2022-09-23T19:34:46.466Z,100231.00
2022-09-23T19:37:16.563Z,100227.00
2022-09-23T19:39:45.891Z,100233.00
2022-09-23T19:42:14.375Z,100232.00
2022-09-23T19:44:42.867Z,100237.00
2022-09-23T19:47:15.579Z,100238.00
2022-09-23T19:49:45.670Z,100239.00
2022-09-23T19:52:14.188Z,100232.00
2022-09-23T19:54:42.647Z,100228.00
2022-09-23T19:57:11.054Z,100228.00
2022-09-23T19:59:40.135Z,100233.00
2022-09-23T20:02:09.976Z,100230.00
2022-09-23T20:04:38.623Z,100242.00
2022-09-23T20:07:09.041Z,100234.00
2022-09-23T20:09:37.533Z,100230.00
2022-09-23T20:12:06.143Z,100229.00
2022-09-23T20:14:34.650Z,100229.00
2022-09-23T20:17:03.173Z,100232.00
2022-09-23T20:19:31.660Z,100228.00
2022-09-23T20:22:17.753Z,100233.00
2022-09-23T20:24:47.550Z,100230.00
2022-09-23T20:27:15.532Z,100226.00
2022-09-23T20:29:44.052Z,100221.00
2022-09-23T20:32:12.659Z,100219.00
2022-09-23T20:34:46.634Z,100225.00
2022-09-23T20:37:17.495Z,100220.00
2022-09-23T20:39:48.563Z,100213.00
2022-09-23T20:42:17.961Z,100207.00
2022-09-23T20:44:47.447Z,100210.00
2022-09-23T20:47:17.966Z,100213.00
2022-09-23T20:49:48.918Z,100211.00
2022-09-23T20:52:20.315Z,100211.00
2022-09-23T20:54:51.622Z,100206.00
2022-09-23T20:57:21.429Z,100206.00
2022-09-23T20:59:49.885Z,100203.00
2022-09-23T21:02:18.424Z,100208.00
2022-09-23T21:04:46.990Z,100196.00
2022-09-23T21:07:15.496Z,100201.00
2022-09-23T21:09:43.962Z,100205.00
2022-09-23T21:12:13.897Z,100193.00
2022-09-23T21:14:42.385Z,100179.00
2022-09-23T21:17:10.856Z,100184.00
2022-09-23T21:19:40.027Z,100188.00
2022-09-23T21:22:09.191Z,100179.00
2022-09-23T21:25:21.410Z,100194.00
2022-09-23T21:27:28.183Z,100186.00
2022-09-23T21:29:56.627Z,100193.00
2022-09-23T21:32:25.119Z,100192.00
2022-09-23T21:34:53.634Z,100186.00
2022-09-23T21:37:22.505Z,100183.00
2022-09-23T21:40:11.952Z,100189.00
2022-09-23T21:42:42.085Z,100189.00
2022-09-23T21:45:11.464Z,100182.00
2022-09-23T21:47:42.138Z,100178.00
2022-09-23T21:50:11.000Z,100179.00
2022-09-23T21:52:39.480Z,100190.00
2022-09-23T21:55:08.714Z,100181.00
2022-09-23T21:57:37.659Z,100177.00
2022-09-23T22:00:09.777Z,100179.00
2022-09-23T22:02:39.892Z,100177.00
2022-09-23T22:05:09.037Z,100178.00
2022-09-23T22:07:38.850Z,100181.00
2022-09-23T22:10:08.206Z,100178.00
2022-09-23T22:12:36.766Z,100176.00
2022-09-23T22:15:07.707Z,100167.00
2022-09-23T22:17:36.191Z,100181.00
2022-09-23T22:20:05.063Z,100170.00
2022-09-23T22:22:33.567Z,100169.00
2022-09-23T22:25:02.076Z,100167.00
2022-09-23T22:27:30.587Z,100158.00
2022-09-23T22:30:16.686Z,100156.00
2022-09-23T22:32:52.909Z,100156.00
2022-09-23T22:35:23.585Z,100162.00
2022-09-23T22:37:52.070Z,100157.00
2022-09-23T22:40:20.890Z,100156.00
2022-09-23T22:42:49.747Z,100157.00
2022-09-23T22:45:18.362Z,100148.00
2022-09-23T22:47:48.853Z,100152.00
2022-09-23T22:50:17.504Z,100156.00
2022-09-23T22:52:45.991Z,100150.00
2022-09-23T22:55:14.795Z,100149.00
2022-09-23T22:57:43.286Z,100144.00
2022-09-23T23:00:13.350Z,100151.00
2022-09-23T23:02:42.575Z,100148.00
2022-09-23T23:05:14.549Z,100135.00
2022-09-23T23:07:43.036Z,100143.00
2022-09-23T23:10:11.716Z,100143.00
2022-09-23T23:12:40.395Z,100145.00
2022-09-23T23:15:12.334Z,100139.00
2022-09-23T23:17:43.606Z,100145.00
2022-09-23T23:20:13.625Z,100135.00
2022-09-23T23:22:42.202Z,100141.00
2022-09-23T23:25:10.954Z,100141.00
2022-09-23T23:27:39.416Z,100139.00
2022-09-23T23:30:09.393Z,100138.00
2022-09-23T23:32:37.910Z,100134.00
2022-09-23T23:35:07.240Z,100137.00
2022-09-23T23:37:37.024Z,100138.00
2022-09-23T23:40:06.360Z,100137.00
2022-09-23T23:42:34.995Z,100129.00
2022-09-23T23:45:03.572Z,100127.00
2022-09-23T23:47:32.046Z,100127.00
2022-09-23T23:50:00.488Z,100122.00
2022-09-23T23:52:28.970Z,100122.00
2022-09-23T23:54:58.754Z,100131.00
2022-09-23T23:57:27.265Z,100116.00
2022-09-23T23:59:55.803Z,100119.00
